createdAt,value
2022-11-20T00:01:35.017Z,93898.13
2022-11-20T00:04:38.683Z,93896.38
2022-11-20T00:07:43.006Z,93898.34
2022-11-20T00:10:46.150Z,93899.63
2022-11-20T00:13:53.114Z,93900.63
2022-11-20T00:16:56.643Z,93896.66
2022-11-20T00:20:00.524Z,93903.63
2022-11-20T00:23:03.799Z,93903.13
2022-11-20T00:26:13.524Z,93899.66
2022-11-20T00:29:17.281Z,93907.53
2022-11-20T00:32:21.342Z,93898.53
2022-11-20T00:35:24.775Z,93901.91
2022-11-20T00:38:29.151Z,93902.81
2022-11-20T00:41:32.940Z,93903.69
2022-11-20T00:44:36.873Z,93903.06
2022-11-20T00:47:40.487Z,93901.53
2022-11-20T00:50:44.580Z,93908.97
2022-11-20T00:53:48.569Z,93910.84
2022-11-20T00:56:54.741Z,93906.41
2022-11-20T00:59:58.415Z,93912.88
2022-11-20T01:03:02.467Z,93907.69
2022-11-20T01:06:08.843Z,93907.25
2022-11-20T01:09:16.014Z,93903.78
2022-11-20T01:12:19.574Z,93902.72
2022-11-20T01:15:23.533Z,93909.78
2022-11-20T01:18:27.134Z,93909.53
2022-11-20T01:21:33.828Z,93914.59
2022-11-20T01:24:37.351Z,93913.06
2022-11-20T01:27:41.364Z,93915.28
2022-11-20T01:30:44.959Z,93907.47
2022-11-20T01:33:50.792Z,93901.16
2022-11-20T01:36:55.063Z,93896.88
2022-11-20T01:39:58.991Z,93893.19
2022-11-20T01:43:24.775Z,93880.72
2022-11-20T01:46:28.471Z,93881.97
2022-11-20T01:49:56.658Z,93872.28
2022-11-20T01:53:07.499Z,93870.72
2022-11-20T01:56:14.021Z,93873.41
2022-11-20T01:59:21.456Z,93862.53
2022-11-20T02:02:24.893Z,93869.22
2022-11-20T02:05:40.517Z,93867.25
2022-11-20T02:08:43.462Z,93865.13
2022-11-20T02:11:47.441Z,93872.34
2022-11-20T02:14:51.032Z,93863.97
2022-11-20T02:17:55.621Z,93864.63
2022-11-20T02:21:09.072Z,93870.00
2022-11-20T02:24:24.543Z,93867.72
2022-11-20T02:27:29.103Z,93866.88
2022-11-20T02:30:31.954Z,93855.59
2022-11-20T02:33:35.539Z,93858.16
2022-11-20T02:36:42.316Z,93866.69
2022-11-20T02:39:47.727Z,93863.59
2022-11-20T02:42:55.320Z,93870.88
2022-11-20T02:46:00.003Z,93865.44
2022-11-20T02:49:05.564Z,93875.69
2022-11-20T02:52:08.851Z,93861.00
2022-11-20T02:55:12.801Z,93873.31
2022-11-20T02:58:15.856Z,93859.97
2022-11-20T03:01:19.753Z,93868.09
2022-11-20T03:04:23.380Z,93863.94
2022-11-20T03:07:27.961Z,93860.91
2022-11-20T03:10:31.598Z,93855.72
2022-11-20T03:13:36.455Z,93855.13
2022-11-20T03:16:40.195Z,93848.50
2022-11-20T03:19:43.580Z,93838.38
2022-11-20T03:22:47.273Z,93842.19
2022-11-20T03:25:50.988Z,93839.53
2022-11-20T03:28:59.150Z,93836.00
2022-11-20T03:32:03.067Z,93831.09
2022-11-20T03:35:07.304Z,93823.53
2022-11-20T03:38:10.429Z,93823.44
2022-11-20T03:41:41.599Z,93822.84
2022-11-20T03:44:45.284Z,93819.09
2022-11-20T03:47:48.946Z,93820.94
2022-11-20T03:50:54.268Z,93811.47
2022-11-20T03:53:59.816Z,93810.44
2022-11-20T03:57:02.736Z,93802.63
2022-11-20T04:00:08.254Z,93796.88
2022-11-20T04:03:12.223Z,93792.75
2022-11-20T04:06:23.811Z,93793.03
2022-11-20T04:09:27.107Z,93791.69
2022-11-20T04:12:34.722Z,93786.47
2022-11-20T04:15:38.634Z,93789.44
2022-11-20T04:18:42.198Z,93787.16
2022-11-20T04:21:46.335Z,93786.38
2022-11-20T04:24:49.182Z,93786.44
2022-11-20T04:27:52.723Z,93782.03
2022-11-20T04:30:55.680Z,93776.91
2022-11-20T04:34:06.778Z,93777.44
2022-11-20T04:37:10.355Z,93777.63
2022-11-20T04:40:14.353Z,93772.31
2022-11-20T04:43:17.238Z,93772.47
2022-11-20T04:46:22.378Z,93774.44
2022-11-20T04:49:26.106Z,93772.25
2022-11-20T04:52:29.434Z,93770.47
2022-11-20T04:55:32.443Z,93764.06
2022-11-20T04:58:35.965Z,93764.16
2022-11-20T05:01:39.625Z,93754.56
2022-11-20T05:04:43.180Z,93754.44
2022-11-20T05:07:46.138Z,93748.53
2022-11-20T05:10:50.051Z,93752.78
2022-11-20T05:13:53.902Z,93747.91
2022-11-20T05:16:57.072Z,93742.34
2022-11-20T05:20:00.705Z,93743.72
2022-11-20T05:23:03.880Z,93727.06
2022-11-20T05:26:08.878Z,93734.59
2022-11-20T05:29:13.638Z,93725.47
2022-11-20T05:32:17.301Z,93723.94
2022-11-20T05:35:21.357Z,93721.94
2022-11-20T05:38:24.292Z,93720.38
2022-11-20T05:41:27.972Z,93717.56
2022-11-20T05:44:30.813Z,93713.78
2022-11-20T05:47:36.507Z,93710.41
2022-11-20T05:50:40.061Z,93709.94
2022-11-20T05:53:48.109Z,93706.75
2022-11-20T05:56:51.560Z,93709.91
2022-11-20T05:59:55.185Z,93709.41
2022-11-20T06:02:58.775Z,93702.31
2022-11-20T06:06:04.612Z,93706.94
2022-11-20T06:09:07.575Z,93708.16
2022-11-20T06:12:10.877Z,93699.06
2022-11-20T06:15:14.536Z,93700.66
2022-11-20T06:18:18.549Z,93697.53
2022-11-20T06:21:23.748Z,93694.47
2022-11-20T06:24:27.716Z,93701.75
2022-11-20T06:27:31.224Z,93696.19
2022-11-20T06:30:35.408Z,93701.03
2022-11-20T06:33:39.073Z,93694.16
2022-11-20T06:36:42.723Z,93697.09
2022-11-20T06:39:46.081Z,93692.06
2022-11-20T06:42:50.237Z,93692.59
2022-11-20T06:45:55.336Z,93691.47
2022-11-20T06:49:00.166Z,93691.75
2022-11-20T06:52:03.676Z,93682.75
2022-11-20T06:55:07.774Z,93682.47
2022-11-20T06:58:11.820Z,93679.66
2022-11-20T07:01:17.143Z,93681.25
2022-11-20T07:04:20.406Z,93682.91
2022-11-20T07:07:24.474Z,93679.13
2022-11-20T07:10:28.568Z,93678.94
2022-11-20T07:13:32.827Z,93679.56
2022-11-20T07:16:36.363Z,93676.00
2022-11-20T07:19:41.090Z,93676.41
2022-11-20T07:22:45.178Z,93678.72
2022-11-20T07:25:49.060Z,93669.81
2022-11-20T07:28:52.327Z,93681.44
2022-11-20T07:31:58.110Z,93673.81
2022-11-20T07:35:01.352Z,93683.34
2022-11-20T07:38:05.406Z,93678.31
2022-11-20T07:41:08.959Z,93676.41
2022-11-20T07:44:12.396Z,93675.13
2022-11-20T07:47:15.678Z,93682.69
2022-11-20T07:50:21.035Z,93684.56
2022-11-20T07:53:25.274Z,93686.31
2022-11-20T07:56:29.162Z,93676.47
2022-11-20T07:59:32.646Z,93686.06
2022-11-20T08:02:38.738Z,93684.84
2022-11-20T08:05:41.578Z,93687.13
2022-11-20T08:08:45.282Z,93700.19
2022-11-20T08:12:06.999Z,93691.97
2022-11-20T08:15:13.369Z,93694.31
2022-11-20T08:18:31.161Z,93707.69
2022-11-20T08:21:38.323Z,93697.75
2022-11-20T08:24:42.176Z,93703.41
2022-11-20T08:27:46.267Z,93706.63
2022-11-20T08:30:51.592Z,93704.31
2022-11-20T08:33:56.240Z,93705.72
2022-11-20T08:37:00.363Z,93710.47
2022-11-20T08:40:04.311Z,93711.22
2022-11-20T08:43:07.996Z,93713.81
2022-11-20T08:46:11.891Z,93732.31
2022-11-20T08:49:16.522Z,93727.19
2022-11-20T08:52:20.416Z,93725.81
2022-11-20T08:55:24.094Z,93732.84
2022-11-20T08:58:28.410Z,93732.97
2022-11-20T09:01:32.118Z,93737.81
2022-11-20T09:04:36.942Z,93744.25
2022-11-20T09:07:41.753Z,93733.50
2022-11-20T09:10:45.699Z,93747.47
2022-11-20T09:13:49.548Z,93746.66
2022-11-20T09:16:53.040Z,93739.63
2022-11-20T09:19:56.518Z,93736.28
2022-11-20T09:23:00.375Z,93740.91
2022-11-20T09:26:05.966Z,93746.91
2022-11-20T09:29:09.984Z,93749.31
2022-11-20T09:32:13.457Z,93752.03
2022-11-20T09:35:17.600Z,93754.13
2022-11-20T09:38:21.324Z,93755.03
2022-11-20T09:41:42.730Z,93754.69
2022-11-20T09:44:55.040Z,93753.66
2022-11-20T09:48:27.831Z,93744.53
2022-11-20T09:51:47.840Z,93755.31
2022-11-20T09:54:52.968Z,93750.78
2022-11-20T09:57:57.879Z,93761.31
2022-11-20T10:01:12.264Z,93761.16
2022-11-20T10:04:20.000Z,93769.63
2022-11-20T10:07:59.072Z,93767.97
2022-11-20T10:11:26.692Z,93771.59
2022-11-20T10:14:40.427Z,93764.75
2022-11-20T10:17:57.956Z,93769.25
2022-11-20T10:21:35.079Z,93777.47
2022-11-20T10:25:00.149Z,93776.13
2022-11-20T10:28:18.991Z,93782.56
2022-11-20T10:31:34.997Z,93787.34
2022-11-20T10:34:59.095Z,93793.69
2022-11-20T10:38:07.442Z,93800.84
2022-11-20T10:41:29.302Z,93803.47
2022-11-20T10:44:56.572Z,93807.69
2022-11-20T10:48:16.518Z,93809.25
2022-11-20T10:51:36.661Z,93820.41
2022-11-20T10:55:01.437Z,93819.25
2022-11-20T10:58:35.345Z,93826.28
2022-11-20T11:01:44.498Z,93827.91
2022-11-20T11:04:53.235Z,93823.28
2022-11-20T11:07:59.343Z,93829.00
2022-11-20T11:11:26.895Z,93827.25
2022-11-20T11:14:30.839Z,93828.03
2022-11-20T11:17:35.997Z,93824.59
2022-11-20T11:20:40.034Z,93825.16
2022-11-20T11:23:45.418Z,93838.38
2022-11-20T11:27:12.392Z,93839.72
2022-11-20T11:30:21.768Z,93835.44
2022-11-20T11:33:26.469Z,93831.41
2022-11-20T11:36:30.186Z,93837.81
2022-11-20T11:39:35.554Z,93835.75
2022-11-20T11:42:52.318Z,93842.94
2022-11-20T11:45:57.076Z,93840.06
2022-11-20T11:49:11.346Z,93838.97
2022-11-20T11:52:19.638Z,93841.25
2022-11-20T11:55:33.495Z,93840.03
2022-11-20T11:58:53.486Z,93850.53
2022-11-20T12:02:04.542Z,93843.28
2022-11-20T12:05:30.218Z,93845.97
2022-11-20T12:09:03.128Z,93857.25
2022-11-20T12:12:45.270Z,93852.38
2022-11-20T12:15:49.911Z,93853.66
2022-11-20T12:18:54.726Z,93850.91
2022-11-20T12:22:19.043Z,93848.69
2022-11-20T12:25:36.426Z,93854.94
2022-11-20T12:28:42.711Z,93858.22
2022-11-20T12:32:08.366Z,93865.38
2022-11-20T12:35:27.208Z,93865.31
2022-11-20T12:38:46.433Z,93861.63
2022-11-20T12:42:33.361Z,93863.22
2022-11-20T12:45:55.588Z,93875.13
2022-11-20T12:49:43.516Z,93885.50
2022-11-20T12:53:04.814Z,93879.16
2022-11-20T12:56:41.885Z,93879.34
2022-11-20T13:00:12.628Z,93880.94
2022-11-20T13:03:34.937Z,93881.28
2022-11-20T13:06:39.329Z,93886.00
2022-11-20T13:09:47.618Z,93892.22
2022-11-20T13:13:10.770Z,93892.06
2022-11-20T13:16:21.588Z,93890.38
2022-11-20T13:19:25.087Z,93891.84
2022-11-20T13:22:52.511Z,93891.88
2022-11-20T13:26:25.019Z,93893.34
2022-11-20T13:29:28.860Z,93894.81
2022-11-20T13:32:34.025Z,93884.94
2022-11-20T13:35:42.457Z,93882.31
2022-11-20T13:38:52.343Z,93893.88
2022-11-20T13:42:23.608Z,93892.16
2022-11-20T13:45:32.891Z,93905.09
2022-11-20T13:48:47.454Z,93899.25
2022-11-20T13:52:20.152Z,93903.34
2022-11-20T13:55:49.630Z,93900.78
2022-11-20T13:59:14.562Z,93891.38
2022-11-20T14:02:21.343Z,93893.94
2022-11-20T14:05:26.091Z,93889.81
2022-11-20T14:08:42.406Z,93896.31
2022-11-20T14:11:49.464Z,93905.00
2022-11-20T14:14:54.656Z,93899.53
2022-11-20T14:17:58.844Z,93893.09
2022-11-20T14:21:05.745Z,93895.59
2022-11-20T14:24:13.103Z,93908.03
2022-11-20T14:27:22.483Z,93906.56
2022-11-20T14:30:51.492Z,93899.38
2022-11-20T14:33:55.720Z,93898.19
2022-11-20T14:37:02.195Z,93903.41
2022-11-20T14:40:24.086Z,93897.66
2022-11-20T14:43:29.263Z,93912.31
2022-11-20T14:46:33.586Z,93914.03
2022-11-20T14:49:37.669Z,93913.03
2022-11-20T14:52:59.245Z,93913.53
2022-11-20T14:56:04.124Z,93920.00
2022-11-20T14:59:07.636Z,93923.44
2022-11-20T15:02:13.726Z,93920.22
2022-11-20T15:05:18.218Z,93920.66
2022-11-20T15:08:21.976Z,93921.16
2022-11-20T15:11:35.573Z,93930.59
2022-11-20T15:14:38.600Z,93919.69
2022-11-20T15:17:43.137Z,93937.78
2022-11-20T15:20:47.388Z,93931.06
2022-11-20T15:23:51.777Z,93943.94
2022-11-20T15:26:56.241Z,93934.53
2022-11-20T15:29:59.668Z,93937.25
2022-11-20T15:33:03.419Z,93937.28
2022-11-20T15:36:07.181Z,93928.13
2022-11-20T15:39:11.570Z,93930.31
2022-11-20T15:42:15.626Z,93929.38
2022-11-20T15:45:18.507Z,93919.72
2022-11-20T15:48:24.618Z,93928.91
2022-11-20T15:51:33.284Z,93932.34
2022-11-20T15:54:37.231Z,93939.78
2022-11-20T15:57:40.216Z,93936.25
2022-11-20T16:00:43.482Z,93941.19
2022-11-20T16:03:47.376Z,93944.69
2022-11-20T16:06:51.038Z,93955.03
2022-11-20T16:09:55.813Z,93952.81
2022-11-20T16:13:38.032Z,93953.78
2022-11-20T16:16:42.995Z,93960.03
2022-11-20T16:19:46.548Z,93959.94
2022-11-20T16:22:50.037Z,93950.44
2022-11-20T16:25:53.658Z,93953.03
2022-11-20T16:28:57.452Z,93960.44
2022-11-20T16:32:00.946Z,93958.34
2022-11-20T16:35:04.839Z,93956.53
2022-11-20T16:38:08.438Z,93953.03
2022-11-20T16:41:14.908Z,93962.13
2022-11-20T16:44:18.552Z,93958.66
2022-11-20T16:47:22.132Z,93949.13
2022-11-20T16:50:25.737Z,93940.25
2022-11-20T16:53:29.675Z,93940.78
2022-11-20T16:56:33.532Z,93939.75
2022-11-20T16:59:36.689Z,93934.41
2022-11-20T17:02:39.929Z,93933.53
2022-11-20T17:05:43.616Z,93940.06
2022-11-20T17:08:47.460Z,93937.75
2022-11-20T17:11:51.689Z,93941.03
2022-11-20T17:14:55.207Z,93944.44
2022-11-20T17:17:59.126Z,93947.69
2022-11-20T17:21:05.811Z,93954.78
2022-11-20T17:24:11.789Z,93957.31
2022-11-20T17:27:15.586Z,93951.09
2022-11-20T17:30:18.954Z,93960.44
2022-11-20T17:33:21.848Z,93951.19
2022-11-20T17:36:24.714Z,93961.00
2022-11-20T17:39:28.168Z,93963.81
2022-11-20T17:42:37.219Z,93958.00
2022-11-20T17:45:40.762Z,93953.31
2022-11-20T17:48:44.899Z,93958.78
2022-11-20T17:51:47.831Z,93959.72
2022-11-20T17:54:55.823Z,93965.03
2022-11-20T17:58:03.399Z,93964.56
2022-11-20T18:01:08.959Z,93972.19
2022-11-20T18:04:13.072Z,93960.66
2022-11-20T18:07:16.332Z,93959.78
2022-11-20T18:10:19.999Z,93966.31
2022-11-20T18:13:47.754Z,93963.38
2022-11-20T18:16:54.420Z,93966.38
2022-11-20T18:20:21.651Z,93970.69
2022-11-20T18:23:21.411Z,93964.56
2022-11-20T18:26:27.554Z,93951.72
2022-11-20T18:29:31.813Z,93964.44
2022-11-20T18:32:36.790Z,93961.19
2022-11-20T18:35:43.352Z,93974.06
2022-11-20T18:38:49.088Z,93974.81
2022-11-20T18:42:11.499Z,93964.78
2022-11-20T18:45:16.010Z,93961.41
2022-11-20T18:48:19.881Z,93970.16
2022-11-20T18:51:23.768Z,93970.28
2022-11-20T18:54:27.491Z,93974.78
2022-11-20T18:57:31.238Z,93972.88
2022-11-20T19:00:35.186Z,93977.41
2022-11-20T19:03:39.264Z,93976.22
2022-11-20T19:06:43.805Z,93982.63
2022-11-20T19:09:50.581Z,93983.09
2022-11-20T19:12:53.601Z,93980.22
2022-11-20T19:16:02.103Z,93980.47
2022-11-20T19:19:06.982Z,93984.16
2022-11-20T19:22:10.035Z,93976.84
2022-11-20T19:25:12.952Z,93968.78
2022-11-20T19:28:16.635Z,93961.09
2022-11-20T19:31:24.595Z,93961.63
2022-11-20T19:34:27.946Z,93973.78
2022-11-20T19:37:34.149Z,93975.28
2022-11-20T19:40:37.861Z,93975.91
2022-11-20T19:43:42.302Z,93980.34
2022-11-20T19:46:46.170Z,93977.31
2022-11-20T19:49:49.851Z,93981.34
2022-11-20T19:52:58.548Z,93976.09
2022-11-20T19:56:03.016Z,93977.81
2022-11-20T19:59:06.334Z,93981.94
2022-11-20T20:02:12.599Z,93977.19
2022-11-20T20:05:15.819Z,93982.50
2022-11-20T20:08:19.795Z,93979.00
2022-11-20T20:11:24.921Z,93981.31
2022-11-20T20:14:28.228Z,93979.91
2022-11-20T20:17:31.790Z,93981.25
2022-11-20T20:20:35.068Z,93983.03
2022-11-20T20:23:39.256Z,93981.53
2022-11-20T20:26:43.584Z,93988.41
2022-11-20T20:29:47.104Z,93995.38
2022-11-20T20:32:55.853Z,93991.94
2022-11-20T20:35:59.832Z,93993.41
2022-11-20T20:39:05.488Z,94001.38
2022-11-20T20:42:09.205Z,94002.94
2022-11-20T20:45:12.873Z,94007.50
2022-11-20T20:48:18.009Z,94008.16
2022-11-20T20:51:23.548Z,94003.47
2022-11-20T20:54:28.352Z,94005.59
2022-11-20T20:57:35.122Z,94009.78
2022-11-20T21:00:38.028Z,94006.91
2022-11-20T21:03:41.285Z,94017.78
2022-11-20T21:06:44.157Z,94011.06
2022-11-20T21:09:47.113Z,94023.59
2022-11-20T21:12:50.370Z,94024.59
2022-11-20T21:15:53.961Z,94023.03
2022-11-20T21:18:57.818Z,94017.84
2022-11-20T21:22:00.964Z,94023.03
2022-11-20T21:25:03.926Z,94021.50
2022-11-20T21:28:07.405Z,94032.47
2022-11-20T21:31:14.174Z,94034.28
2022-11-20T21:34:18.361Z,94040.38
2022-11-20T21:37:22.363Z,94042.75
2022-11-20T21:40:25.937Z,94048.06
2022-11-20T21:43:30.550Z,94049.50
2022-11-20T21:46:35.539Z,94046.09
2022-11-20T21:49:40.442Z,94056.91
2022-11-20T21:52:44.084Z,94046.97
2022-11-20T21:55:57.963Z,94051.22
2022-11-20T21:59:01.444Z,94049.50
2022-11-20T22:02:05.491Z,94053.38
2022-11-20T22:05:10.023Z,94054.03
2022-11-20T22:08:13.896Z,94061.53
2022-11-20T22:11:19.732Z,94055.41
2022-11-20T22:14:24.262Z,94059.03
2022-11-20T22:17:45.478Z,94073.13
2022-11-20T22:20:49.453Z,94081.56
2022-11-20T22:23:53.393Z,94072.91
2022-11-20T22:26:57.230Z,94076.44
2022-11-20T22:30:00.912Z,94088.06
2022-11-20T22:33:07.795Z,94079.66
2022-11-20T22:36:20.729Z,94078.78
2022-11-20T22:39:24.302Z,94082.03
2022-11-20T22:42:28.226Z,94083.69
2022-11-20T22:45:31.882Z,94079.06
2022-11-20T22:48:38.031Z,94090.63
2022-11-20T22:51:42.349Z,94087.31
2022-11-20T22:54:46.313Z,94093.75
2022-11-20T22:57:49.849Z,94088.72
2022-11-20T23:00:53.772Z,94085.94
2022-11-20T23:04:02.324Z,94093.00
2022-11-20T23:07:06.290Z,94091.66
2022-11-20T23:10:10.387Z,94097.50
2022-11-20T23:13:13.842Z,94112.56
2022-11-20T23:16:20.401Z,94110.19
2022-11-20T23:19:25.068Z,94113.16
2022-11-20T23:22:28.893Z,94123.81
2022-11-20T23:25:32.899Z,94134.66
2022-11-20T23:28:37.849Z,94136.75
2022-11-20T23:31:41.817Z,94131.09
2022-11-20T23:34:45.383Z,94135.06
2022-11-20T23:37:49.429Z,94144.50
2022-11-20T23:40:53.582Z,94157.25
2022-11-20T23:43:57.631Z,94159.56
2022-11-20T23:47:01.204Z,94161.72
2022-11-20T23:50:05.095Z,94165.84
2022-11-20T23:53:08.540Z,94166.53
2022-11-20T23:56:15.059Z,94171.19
2022-11-20T23:59:18.761Z,94171.94
